Time;durP1;ratioP1;P1;durP2;ratioP2;P2;SDS_P1;SDS_P2;PMS_P1;PMS_P2;Temp;Humidity;BMP_temperature;BMP_pressure;BME280_temperature;BME280_humidity;BME280_pressure;Samples;Min_cycle;Max_cycle;Signal;HPM_P1;HPM_P2
2022/03/17 00:01:55;;;;;;;88.90;27.00;;;;;;;;;;5113739;28;20459;-68
2022/03/17 00:04:22;;;;;;;86.97;25.87;;;;;;;;;;5113283;28;21024;-68
2022/03/17 00:06:49;;;;;;;85.07;23.13;;;;;;;;;;5113334;28;20567;-69
2022/03/17 00:09:18;;;;;;;89.20;24.93;;;;;;;;;;5094798;28;20640;-68
2022/03/17 00:11:45;;;;;;;94.40;26.00;;;;;;;;;;5093132;28;20453;-69
2022/03/17 00:14:12;;;;;;;86.77;24.70;;;;;;;;;;5091296;28;20449;-72
2022/03/17 00:16:40;;;;;;;87.07;23.73;;;;;;;;;;5092585;28;20555;-68
2022/03/17 00:19:09;;;;;;;89.33;25.87;;;;;;;;;;5089496;28;20457;-68
2022/03/17 00:21:37;;;;;;;88.20;26.27;;;;;;;;;;5092693;28;20460;-72
2022/03/17 00:24:06;;;;;;;86.37;23.87;;;;;;;;;;5092754;28;20449;-68
2022/03/17 00:26:35;;;;;;;91.23;25.57;;;;;;;;;;5092829;28;20476;-69
2022/03/17 00:29:03;;;;;;;88.27;24.33;;;;;;;;;;5092414;28;20444;-71
2022/03/17 00:31:30;;;;;;;91.37;25.40;;;;;;;;;;5092746;28;20546;-68
2022/03/17 00:33:57;;;;;;;92.67;26.47;;;;;;;;;;5092236;28;20445;-69
2022/03/17 00:36:25;;;;;;;89.27;26.90;;;;;;;;;;5092092;28;20463;-71
2022/03/17 00:38:53;;;;;;;91.83;26.67;;;;;;;;;;5092081;28;20481;-70
2022/03/17 00:41:20;;;;;;;94.83;26.03;;;;;;;;;;5092477;28;20453;-68
2022/03/17 00:43:49;;;;;;;94.10;27.40;;;;;;;;;;5092352;28;20906;-69
2022/03/17 00:46:16;;;;;;;93.90;27.10;;;;;;;;;;5092198;28;20493;-69
2022/03/17 00:48:43;;;;;;;93.10;27.10;;;;;;;;;;5091526;28;20455;-71
2022/03/17 00:51:10;;;;;;;93.77;27.23;;;;;;;;;;5090038;28;20536;-68
2022/03/17 00:53:37;;;;;;;94.47;26.77;;;;;;;;;;5092167;28;20495;-70
2022/03/17 00:56:05;;;;;;;91.33;26.30;;;;;;;;;;5092158;28;20461;-69
2022/03/17 00:58:32;;;;;;;91.07;27.27;;;;;;;;;;5091686;28;20510;-69
2022/03/17 01:01:00;;;;;;;91.40;26.50;;;;;;;;;;5092133;28;20448;-68
2022/03/17 01:03:28;;;;;;;90.87;25.50;;;;;;;;;;5092329;28;20510;-69
2022/03/17 01:05:55;;;;;;;95.30;25.67;;;;;;;;;;5092107;28;20491;-69
2022/03/17 01:08:22;;;;;;;90.93;26.03;;;;;;;;;;5091509;28;20513;-69
2022/03/17 01:10:49;;;;;;;93.57;26.20;;;;;;;;;;5092062;28;20449;-68
2022/03/17 01:13:17;;;;;;;90.27;25.30;;;;;;;;;;5092004;28;20596;-69
2022/03/17 01:15:44;;;;;;;91.30;27.47;;;;;;;;;;5091794;28;20542;-70
2022/03/17 01:18:12;;;;;;;88.73;24.87;;;;;;;;;;5091551;28;20532;-69
2022/03/17 01:20:39;;;;;;;91.00;26.90;;;;;;;;;;5092104;28;20452;-68
2022/03/17 01:23:06;;;;;;;94.10;25.50;;;;;;;;;;5091794;28;20459;-69
2022/03/17 01:25:34;;;;;;;90.90;24.67;;;;;;;;;;5091691;28;20575;-69
2022/03/17 01:28:01;;;;;;;90.10;26.27;;;;;;;;;;5091385;28;20452;-70
2022/03/17 01:30:28;;;;;;;91.43;26.40;;;;;;;;;;5091848;28;20464;-71
2022/03/17 01:32:55;;;;;;;91.60;26.53;;;;;;;;;;5091894;28;20445;-69
2022/03/17 01:35:24;;;;;;;87.43;24.90;;;;;;;;;;5092006;28;20528;-70
2022/03/17 01:37:51;;;;;;;86.73;23.63;;;;;;;;;;5091363;28;20448;-69
2022/03/17 01:40:18;;;;;;;92.23;25.97;;;;;;;;;;5091933;28;20549;-68
2022/03/17 01:42:45;;;;;;;90.07;26.00;;;;;;;;;;5091481;28;20449;-68
2022/03/17 01:45:15;;;;;;;89.27;25.80;;;;;;;;;;5091791;28;20566;-70
2022/03/17 01:47:42;;;;;;;93.10;26.00;;;;;;;;;;5091169;28;20897;-67
2022/03/17 01:50:11;;;;;;;91.30;26.80;;;;;;;;;;5091715;28;20577;-67
2022/03/17 01:52:39;;;;;;;91.30;25.27;;;;;;;;;;5091387;28;20538;-68
2022/03/17 01:55:08;;;;;;;88.57;24.90;;;;;;;;;;5091570;28;20831;-72
2022/03/17 01:57:35;;;;;;;90.13;26.27;;;;;;;;;;5091166;28;20465;-72
2022/03/17 02:00:03;;;;;;;86.47;23.63;;;;;;;;;;5091700;28;20456;-69
2022/03/17 02:02:30;;;;;;;90.87;25.97;;;;;;;;;;5091461;28;20538;-69
2022/03/17 02:04:57;;;;;;;90.40;25.10;;;;;;;;;;5095082;28;20476;-72
2022/03/17 02:07:24;;;;;;;90.53;24.57;;;;;;;;;;5094789;28;20501;-69
2022/03/17 02:09:52;;;;;;;91.57;24.23;;;;;;;;;;5095279;28;20441;-70
2022/03/17 02:15:05;;;;;;;88.20;25.40;;;;;;;;;;5095422;28;20428;-69
2022/03/17 02:17:39;;;;;;;90.20;25.50;;;;;;;;;;5094674;28;20478;-66
2022/03/17 02:20:08;;;;;;;91.57;26.40;;;;;;;;;;5095134;28;20546;-69
2022/03/17 02:22:35;;;;;;;87.23;25.43;;;;;;;;;;5095252;28;20480;-69
2022/03/17 02:27:49;;;;;;;95.03;24.57;;;;;;;;;;5094746;28;20501;-68
2022/03/17 02:30:17;;;;;;;89.03;23.83;;;;;;;;;;5094875;28;20468;-69
2022/03/17 02:32:44;;;;;;;93.90;26.00;;;;;;;;;;5091760;28;20298;-68
2022/03/17 02:35:13;;;;;;;92.87;26.20;;;;;;;;;;5094919;28;20513;-69
2022/03/17 02:37:40;;;;;;;90.57;23.47;;;;;;;;;;5094187;28;20505;-69
2022/03/17 02:40:10;;;;;;;89.33;24.70;;;;;;;;;;5094928;28;20634;-69
2022/03/17 02:42:38;;;;;;;88.70;23.90;;;;;;;;;;5094693;28;20531;-69
2022/03/17 02:45:06;;;;;;;84.00;22.80;;;;;;;;;;5094968;28;20853;-68
2022/03/17 02:47:33;;;;;;;89.80;24.50;;;;;;;;;;5094090;28;20567;-68
2022/03/17 02:50:01;;;;;;;92.30;24.80;;;;;;;;;;5094661;28;20448;-69
2022/03/17 02:52:29;;;;;;;89.83;23.40;;;;;;;;;;5094700;28;20891;-68
2022/03/17 02:54:56;;;;;;;93.17;25.97;;;;;;;;;;5094762;28;20531;-69
2022/03/17 02:57:25;;;;;;;91.33;24.30;;;;;;;;;;5094016;28;20481;-69
2022/03/17 02:59:52;;;;;;;91.07;24.50;;;;;;;;;;5094722;28;20448;-69
2022/03/17 03:02:20;;;;;;;86.40;23.53;;;;;;;;;;5094308;28;20457;-69
2022/03/17 03:04:47;;;;;;;88.73;24.00;;;;;;;;;;5094395;28;20459;-70
2022/03/17 03:07:14;;;;;;;87.97;23.40;;;;;;;;;;5094306;28;20865;-69
2022/03/17 03:09:42;;;;;;;90.00;23.23;;;;;;;;;;5094150;28;20534;-69
2022/03/17 03:12:09;;;;;;;88.77;23.80;;;;;;;;;;5094388;28;20444;-71
2022/03/17 03:14:38;;;;;;;89.53;25.03;;;;;;;;;;5093713;28;20449;-69
2022/03/17 03:17:06;;;;;;;88.25;22.90;;;;;;;;;;5094078;28;20884;-69
2022/03/17 03:19:33;;;;;;;94.50;24.87;;;;;;;;;;5094405;28;20205;-70
2022/03/17 03:22:01;;;;;;;94.50;24.63;;;;;;;;;;5094084;28;20451;-69
2022/03/17 03:24:28;;;;;;;89.50;24.70;;;;;;;;;;5093848;28;20525;-68
2022/03/17 03:26:55;;;;;;;88.60;24.30;;;;;;;;;;5094119;28;20516;-72
2022/03/17 03:29:23;;;;;;;89.97;24.30;;;;;;;;;;5093257;28;20547;-68
2022/03/17 03:31:52;;;;;;;92.90;26.20;;;;;;;;;;5093988;28;20778;-69
2022/03/17 03:34:20;;;;;;;90.90;24.03;;;;;;;;;;5093902;28;20833;-68
2022/03/17 03:39:33;;;;;;;87.83;22.50;;;;;;;;;;5093413;28;20543;-70
2022/03/17 03:42:00;;;;;;;87.83;23.57;;;;;;;;;;5093766;28;20453;-70
2022/03/17 03:44:27;;;;;;;91.63;24.90;;;;;;;;;;5093595;28;20458;-69
2022/03/17 03:46:56;;;;;;;88.43;22.30;;;;;;;;;;5093492;28;20570;-69
2022/03/17 03:49:23;;;;;;;91.13;24.23;;;;;;;;;;5092848;28;20447;-69
2022/03/17 03:51:50;;;;;;;89.53;23.67;;;;;;;;;;5093675;28;20448;-69
2022/03/17 03:54:18;;;;;;;85.80;22.03;;;;;;;;;;5093527;28;20543;-68
2022/03/17 03:56:45;;;;;;;87.93;23.53;;;;;;;;;;5093494;28;20487;-69
2022/03/17 03:59:15;;;;;;;92.17;25.47;;;;;;;;;;5092603;28;20455;-69
2022/03/17 04:01:42;;;;;;;90.70;23.73;;;;;;;;;;5093150;28;20859;-73
2022/03/17 04:04:13;;;;;;;88.20;24.10;;;;;;;;;;5093122;28;20502;-69
2022/03/17 04:06:42;;;;;;;88.47;24.20;;;;;;;;;;5093200;28;20484;-68
2022/03/17 04:09:09;;;;;;;91.67;23.43;;;;;;;;;;5092422;28;20452;-68
2022/03/17 04:11:36;;;;;;;88.70;25.37;;;;;;;;;;5093191;28;20455;-70
2022/03/17 04:14:03;;;;;;;94.13;25.00;;;;;;;;;;5093043;28;20448;-68
2022/03/17 04:16:31;;;;;;;89.50;24.30;;;;;;;;;;5092937;28;20470;-69
2022/03/17 04:18:58;;;;;;;87.07;22.87;;;;;;;;;;5092285;28;20453;-69
2022/03/17 04:21:27;;;;;;;92.30;25.23;;;;;;;;;;5093086;28;20453;-69
2022/03/17 04:23:54;;;;;;;88.97;23.70;;;;;;;;;;5092970;28;20450;-68
2022/03/17 04:26:21;;;;;;;92.30;25.00;;;;;;;;;;5092022;28;20489;-69
2022/03/17 04:28:48;;;;;;;90.10;24.20;;;;;;;;;;5092027;28;20459;-68
2022/03/17 04:31:15;;;;;;;88.57;25.10;;;;;;;;;;5092590;28;20564;-68
2022/03/17 04:33:43;;;;;;;90.20;24.23;;;;;;;;;;5092773;28;20449;-68
2022/03/17 04:36:11;;;;;;;88.33;24.67;;;;;;;;;;5092722;28;20544;-68
2022/03/17 04:38:39;;;;;;;89.87;23.23;;;;;;;;;;5091969;28;20475;-69
2022/03/17 04:41:08;;;;;;;91.50;25.10;;;;;;;;;;5092588;28;20446;-69
2022/03/17 04:43:35;;;;;;;91.80;26.33;;;;;;;;;;5092506;28;20451;-68
2022/03/17 04:46:02;;;;;;;93.33;25.80;;;;;;;;;;5092484;28;20482;-68
2022/03/17 04:48:29;;;;;;;89.40;24.63;;;;;;;;;;5092119;28;20459;-71
2022/03/17 04:50:56;;;;;;;85.50;21.97;;;;;;;;;;5092423;28;20301;-68
2022/03/17 04:53:32;;;;;;;90.77;24.43;;;;;;;;;;5092346;28;20543;-71
2022/03/17 04:56:01;;;;;;;90.30;24.13;;;;;;;;;;5092153;28;20459;-68
2022/03/17 04:58:29;;;;;;;87.57;23.17;;;;;;;;;;5091853;28;20518;-69
2022/03/17 05:00:56;;;;;;;88.00;24.27;;;;;;;;;;5092357;28;20487;-69
2022/03/17 05:03:23;;;;;;;90.43;23.77;;;;;;;;;;5092625;28;20879;-68
2022/03/17 05:05:50;;;;;;;90.20;24.80;;;;;;;;;;5092020;28;20494;-69
2022/03/17 05:08:18;;;;;;;86.37;22.73;;;;;;;;;;5091443;28;20804;-68
2022/03/17 05:10:47;;;;;;;93.10;24.63;;;;;;;;;;5092016;28;20531;-68
2022/03/17 05:13:17;;;;;;;89.53;24.30;;;;;;;;;;5092073;28;20457;-69
2022/03/17 05:15:46;;;;;;;89.63;24.43;;;;;;;;;;5091941;28;20469;-68
2022/03/17 05:18:13;;;;;;;89.60;25.10;;;;;;;;;;5091221;28;20550;-68
2022/03/17 05:20:41;;;;;;;88.00;23.40;;;;;;;;;;5091861;28;20455;-69
2022/03/17 05:23:09;;;;;;;91.30;24.43;;;;;;;;;;5091742;28;20471;-72
2022/03/17 05:25:38;;;;;;;86.37;22.57;;;;;;;;;;5091878;28;20479;-69
2022/03/17 05:28:05;;;;;;;89.37;23.50;;;;;;;;;;5091410;28;20482;-70
2022/03/17 05:30:34;;;;;;;91.87;25.33;;;;;;;;;;5091898;28;20461;-68
2022/03/17 05:33:02;;;;;;;91.43;24.00;;;;;;;;;;5091808;28;20444;-67
2022/03/17 05:35:29;;;;;;;89.07;24.10;;;;;;;;;;5091582;28;20477;-71
2022/03/17 05:37:56;;;;;;;91.60;24.63;;;;;;;;;;5094854;28;20529;-69
2022/03/17 05:40:24;;;;;;;89.70;23.87;;;;;;;;;;5098714;28;20535;-69
2022/03/17 05:42:53;;;;;;;91.33;23.90;;;;;;;;;;5098551;28;20461;-70
2022/03/17 05:45:20;;;;;;;92.13;25.37;;;;;;;;;;5098589;28;20537;-67
2022/03/17 05:47:49;;;;;;;91.73;24.40;;;;;;;;;;5097666;28;20491;-69
2022/03/17 05:50:17;;;;;;;92.07;25.50;;;;;;;;;;5098838;28;20535;-70
2022/03/17 05:52:45;;;;;;;89.80;23.97;;;;;;;;;;5098564;28;20443;-70
2022/03/17 05:55:13;;;;;;;89.97;23.30;;;;;;;;;;5098475;28;20890;-70
2022/03/17 05:57:40;;;;;;;88.90;23.63;;;;;;;;;;5097839;28;20460;-70
2022/03/17 06:00:09;;;;;;;89.20;24.87;;;;;;;;;;5098388;28;20452;-70
2022/03/17 06:02:36;;;;;;;91.43;23.53;;;;;;;;;;5098088;28;20451;-70
2022/03/17 06:05:06;;;;;;;90.63;23.03;;;;;;;;;;5098603;28;20449;-67
2022/03/17 06:07:37;;;;;;;93.60;25.73;;;;;;;;;;5097557;28;20866;-67
2022/03/17 06:10:05;;;;;;;89.87;24.50;;;;;;;;;;5098265;28;20449;-69
2022/03/17 06:12:32;;;;;;;92.50;23.30;;;;;;;;;;5098406;28;20441;-67
2022/03/17 06:14:59;;;;;;;86.53;22.93;;;;;;;;;;5098092;28;20541;-69
2022/03/17 06:17:37;;;;;;;91.53;23.83;;;;;;;;;;5097826;28;20487;-67
2022/03/17 06:20:09;;;;;;;86.60;22.30;;;;;;;;;;5098268;28;20847;-69
2022/03/17 06:22:36;;;;;;;89.50;24.50;;;;;;;;;;5098029;28;20447;-69
2022/03/17 06:25:04;;;;;;;86.43;23.70;;;;;;;;;;5098170;28;20706;-69
2022/03/17 06:27:31;;;;;;;85.50;22.30;;;;;;;;;;5097288;28;20489;-69
2022/03/17 06:29:58;;;;;;;89.53;24.10;;;;;;;;;;5098037;28;20829;-73
2022/03/17 06:32:26;;;;;;;87.63;22.73;;;;;;;;;;5098327;28;20447;-69
2022/03/17 06:34:53;;;;;;;91.43;25.63;;;;;;;;;;5097900;28;20968;-69
2022/03/17 06:37:21;;;;;;;92.73;22.57;;;;;;;;;;5097189;28;20549;-71
2022/03/17 06:39:49;;;;;;;94.87;23.63;;;;;;;;;;5097939;28;20540;-68
2022/03/17 06:42:16;;;;;;;93.10;25.07;;;;;;;;;;5097680;28;20448;-69
2022/03/17 06:44:43;;;;;;;90.10;25.07;;;;;;;;;;5098112;28;20535;-69
2022/03/17 06:47:10;;;;;;;88.30;23.03;;;;;;;;;;5097092;28;20499;-71
2022/03/17 06:49:37;;;;;;;91.47;24.30;;;;;;;;;;5095253;28;20445;-69
2022/03/17 06:52:04;;;;;;;87.93;23.37;;;;;;;;;;5094687;28;20537;-68
2022/03/17 06:54:33;;;;;;;88.50;23.73;;;;;;;;;;5094450;28;20536;-69
2022/03/17 06:57:00;;;;;;;89.53;22.87;;;;;;;;;;5094618;28;20471;-68
2022/03/17 06:59:27;;;;;;;87.40;22.20;;;;;;;;;;5094048;28;20445;-68
2022/03/17 07:01:54;;;;;;;90.37;25.00;;;;;;;;;;5094484;28;20445;-68
2022/03/17 07:04:22;;;;;;;88.97;23.03;;;;;;;;;;5094514;28;20480;-69
2022/03/17 07:06:49;;;;;;;88.23;23.60;;;;;;;;;;5094195;28;20571;-71
2022/03/17 07:09:16;;;;;;;84.90;22.30;;;;;;;;;;5093448;28;20453;-69
2022/03/17 07:11:46;;;;;;;85.77;23.20;;;;;;;;;;5094407;28;20515;-69
2022/03/17 07:14:14;;;;;;;87.00;23.07;;;;;;;;;;5094534;28;20455;-69
2022/03/17 07:16:41;;;;;;;86.87;23.43;;;;;;;;;;5094158;28;20457;-69
2022/03/17 07:19:08;;;;;;;92.57;23.77;;;;;;;;;;5093568;28;20444;-69
2022/03/17 07:21:35;;;;;;;87.10;23.90;;;;;;;;;;5094063;28;20936;-69
2022/03/17 07:24:02;;;;;;;90.60;23.23;;;;;;;;;;5093895;28;20480;-69
2022/03/17 07:26:29;;;;;;;89.40;23.60;;;;;;;;;;5094255;28;20489;-72
2022/03/17 07:28:58;;;;;;;92.73;25.43;;;;;;;;;;5093319;28;20964;-69
2022/03/17 07:31:25;;;;;;;88.60;21.87;;;;;;;;;;5093887;28;20446;-69
2022/03/17 07:33:53;;;;;;;96.30;24.53;;;;;;;;;;5093708;28;20468;-70
2022/03/17 07:36:20;;;;;;;90.53;24.37;;;;;;;;;;5093579;28;20476;-70
2022/03/17 07:38:48;;;;;;;91.20;24.03;;;;;;;;;;5093468;28;20453;-69
2022/03/17 07:41:15;;;;;;;89.63;22.40;;;;;;;;;;5093958;28;20553;-69
2022/03/17 07:43:43;;;;;;;88.03;22.53;;;;;;;;;;5093548;28;20485;-69
2022/03/17 07:46:12;;;;;;;85.40;23.00;;;;;;;;;;5093450;28;20507;-70
2022/03/17 07:48:41;;;;;;;86.23;22.07;;;;;;;;;;5092775;28;20454;-69
2022/03/17 07:51:08;;;;;;;96.53;24.07;;;;;;;;;;5093765;28;20453;-72
2022/03/17 07:53:36;;;;;;;87.70;20.23;;;;;;;;;;5093603;28;20445;-68
2022/03/17 07:56:04;;;;;;;88.77;22.07;;;;;;;;;;5093390;28;20504;-67
2022/03/17 07:58:32;;;;;;;85.40;22.10;;;;;;;;;;5092742;28;20460;-67
2022/03/17 08:01:01;;;;;;;93.60;24.47;;;;;;;;;;5092173;28;20453;-67
2022/03/17 08:03:29;;;;;;;89.30;22.20;;;;;;;;;;5093047;28;20996;-67
2022/03/17 08:05:57;;;;;;;84.57;20.77;;;;;;;;;;5093416;28;20505;-69
2022/03/17 08:08:25;;;;;;;87.53;23.10;;;;;;;;;;5091816;28;20933;-72
2022/03/17 08:10:52;;;;;;;86.40;22.80;;;;;;;;;;5092251;28;20540;-68
2022/03/17 08:13:21;;;;;;;88.07;24.40;;;;;;;;;;5092683;28;20957;-67
2022/03/17 08:15:48;;;;;;;88.43;23.73;;;;;;;;;;5092894;28;20526;-67
2022/03/17 08:18:15;;;;;;;86.23;22.30;;;;;;;;;;5092347;28;20437;-70
2022/03/17 08:20:43;;;;;;;88.80;24.30;;;;;;;;;;5093107;28;20446;-68
2022/03/17 08:23:11;;;;;;;87.33;22.90;;;;;;;;;;5092918;28;21008;-67
2022/03/17 08:25:38;;;;;;;106.77;23.27;;;;;;;;;;5092940;28;20445;-67
2022/03/17 08:28:08;;;;;;;85.60;21.37;;;;;;;;;;5092149;28;20482;-68
2022/03/17 08:30:36;;;;;;;90.57;25.10;;;;;;;;;;5092696;28;20950;-69
2022/03/17 08:33:03;;;;;;;89.87;23.37;;;;;;;;;;5092929;28;20495;-68
2022/03/17 08:35:30;;;;;;;91.77;24.90;;;;;;;;;;5092864;28;20449;-67
2022/03/17 08:37:59;;;;;;;88.13;23.47;;;;;;;;;;5092002;28;20453;-69
2022/03/17 08:40:26;;;;;;;86.57;22.80;;;;;;;;;;5092735;28;20938;-65
2022/03/17 08:42:53;;;;;;;89.53;25.03;;;;;;;;;;5092501;28;20537;-68
2022/03/17 08:50:50;;;;;;;89.83;23.97;;;;;;;;;;5092689;28;20414;-68
2022/03/17 08:53:19;;;;;;;88.83;23.40;;;;;;;;;;5092279;28;20522;-71
2022/03/17 08:55:46;;;;;;;89.90;24.63;;;;;;;;;;5092114;28;20465;-68
2022/03/17 08:58:13;;;;;;;91.00;22.20;;;;;;;;;;5091851;28;20441;-67
2022/03/17 09:00:41;;;;;;;89.40;23.27;;;;;;;;;;5092459;28;20454;-68
2022/03/17 09:03:09;;;;;;;86.30;21.33;;;;;;;;;;5092320;28;20450;-68
2022/03/17 09:05:36;;;;;;;87.30;21.87;;;;;;;;;;5092279;28;20481;-70
2022/03/17 09:08:05;;;;;;;89.47;24.53;;;;;;;;;;5091920;28;20473;-67
2022/03/17 09:10:34;;;;;;;87.60;24.20;;;;;;;;;;5092253;28;20849;-67
2022/03/17 09:13:07;;;;;;;91.57;23.50;;;;;;;;;;5091890;28;20664;-68
2022/03/17 09:15:35;;;;;;;86.27;22.90;;;;;;;;;;5092300;28;20457;-68
2022/03/17 09:18:02;;;;;;;88.37;23.70;;;;;;;;;;5091507;28;20452;-68
2022/03/17 09:20:29;;;;;;;83.90;21.60;;;;;;;;;;5092175;28;20450;-68
2022/03/17 09:22:57;;;;;;;87.67;23.03;;;;;;;;;;5092307;28;20446;-71
2022/03/17 09:25:25;;;;;;;87.30;22.70;;;;;;;;;;5092314;28;20475;-68
2022/03/17 09:27:54;;;;;;;88.80;24.37;;;;;;;;;;5091475;28;20478;-68
2022/03/17 09:30:21;;;;;;;86.50;23.20;;;;;;;;;;5091829;28;21004;-69
2022/03/17 09:32:52;;;;;;;90.80;25.60;;;;;;;;;;5091956;28;20492;-68
2022/03/17 09:35:19;;;;;;;86.40;23.40;;;;;;;;;;5092073;28;20445;-71
2022/03/17 09:37:47;;;;;;;87.53;23.60;;;;;;;;;;5091935;28;20445;-67
2022/03/17 09:40:15;;;;;;;91.60;23.93;;;;;;;;;;5092051;28;20882;-68
2022/03/17 09:42:42;;;;;;;88.33;24.20;;;;;;;;;;5091823;28;20857;-67
2022/03/17 09:45:12;;;;;;;87.47;23.40;;;;;;;;;;5091787;28;20446;-68
2022/03/17 09:47:39;;;;;;;94.40;24.50;;;;;;;;;;5090817;28;20918;-67
2022/03/17 09:50:08;;;;;;;87.30;23.50;;;;;;;;;;5091660;28;20942;-67
2022/03/17 09:52:37;;;;;;;85.80;21.77;;;;;;;;;;5091553;28;20447;-68
2022/03/17 09:55:04;;;;;;;87.23;22.70;;;;;;;;;;5091771;28;20829;-68
2022/03/17 09:57:32;;;;;;;92.90;26.53;;;;;;;;;;5090800;28;20466;-68
2022/03/17 09:59:59;;;;;;;90.93;23.20;;;;;;;;;;5091778;28;20481;-67
2022/03/17 10:02:28;;;;;;;90.10;23.50;;;;;;;;;;5091535;28;20537;-67
2022/03/17 10:04:55;;;;;;;92.20;24.33;;;;;;;;;;5091618;28;20447;-67
2022/03/17 10:07:22;;;;;;;83.80;23.67;;;;;;;;;;5090866;28;20490;-67
2022/03/17 10:09:50;;;;;;;90.80;24.33;;;;;;;;;;5091477;28;20442;-68
2022/03/17 10:12:18;;;;;;;93.40;24.20;;;;;;;;;;5091602;28;20446;-67
2022/03/17 10:14:46;;;;;;;87.87;23.97;;;;;;;;;;5091323;28;20542;-68
2022/03/17 10:17:29;;;;;;;87.97;23.03;;;;;;;;;;5090625;28;20462;-68
2022/03/17 10:20:11;;;;;;;87.30;23.43;;;;;;;;;;5091636;28;20445;-70
2022/03/17 10:22:42;;;;;;;90.00;24.37;;;;;;;;;;5091436;28;20448;-68
2022/03/17 10:25:09;;;;;;;87.63;24.93;;;;;;;;;;5093541;28;20465;-68
2022/03/17 10:27:40;;;;;;;87.07;24.00;;;;;;;;;;5094371;28;20568;-69
2022/03/17 10:30:08;;;;;;;87.93;24.63;;;;;;;;;;5095369;28;20467;-68
2022/03/17 10:32:36;;;;;;;90.87;24.03;;;;;;;;;;5095378;28;20454;-68
2022/03/17 10:35:07;;;;;;;89.70;23.77;;;;;;;;;;5095119;28;20595;-67
2022/03/17 10:37:36;;;;;;;87.57;23.50;;;;;;;;;;5094238;28;20473;-70
2022/03/17 10:40:10;;;;;;;90.97;25.27;;;;;;;;;;5095130;28;20490;-68
2022/03/17 10:42:37;;;;;;;85.50;24.10;;;;;;;;;;5095190;28;20451;-67
2022/03/17 10:45:06;;;;;;;92.37;26.17;;;;;;;;;;5094954;28;20456;-70
2022/03/17 10:47:34;;;;;;;91.53;26.10;;;;;;;;;;5094109;28;20524;-67
2022/03/17 10:50:04;;;;;;;98.70;26.97;;;;;;;;;;5095299;28;20447;-68
2022/03/17 10:52:45;;;;;;;89.30;25.27;;;;;;;;;;5094624;28;20476;-72
2022/03/17 10:55:13;;;;;;;93.63;25.90;;;;;;;;;;5094890;28;20529;-66
2022/03/17 10:57:40;;;;;;;90.90;24.80;;;;;;;;;;5094055;28;20454;-68
2022/03/17 11:00:12;;;;;;;89.77;24.17;;;;;;;;;;5094907;28;20450;-68
2022/03/17 11:02:41;;;;;;;89.77;25.07;;;;;;;;;;5094544;28;20457;-70
2022/03/17 11:05:10;;;;;;;89.10;25.73;;;;;;;;;;5094717;28;20442;-68
2022/03/17 11:07:38;;;;;;;85.20;23.87;;;;;;;;;;5093583;28;20521;-68
2022/03/17 11:10:07;;;;;;;87.90;24.10;;;;;;;;;;5094664;28;20446;-67
2022/03/17 11:12:35;;;;;;;87.57;24.40;;;;;;;;;;5094350;28;20882;-68
2022/03/17 11:15:02;;;;;;;89.63;22.20;;;;;;;;;;5093989;28;20443;-67
2022/03/17 11:17:32;;;;;;;91.40;26.50;;;;;;;;;;5093362;28;21038;-68
2022/03/17 11:20:04;;;;;;;87.63;24.20;;;;;;;;;;5094366;28;20522;-68
2022/03/17 11:22:33;;;;;;;85.30;23.50;;;;;;;;;;5094231;28;20544;-68
2022/03/17 11:25:23;;;;;;;89.53;22.93;;;;;;;;;;5094139;28;20451;-68
2022/03/17 11:27:51;;;;;;;88.67;23.33;;;;;;;;;;5093208;28;20574;-68
2022/03/17 11:30:19;;;;;;;88.23;24.87;;;;;;;;;;5094021;28;20459;-69
2022/03/17 11:32:51;;;;;;;88.90;25.77;;;;;;;;;;5093806;28;21054;-68
2022/03/17 11:35:19;;;;;;;94.37;25.07;;;;;;;;;;5093637;28;20455;-69
2022/03/17 11:37:46;;;;;;;90.00;24.17;;;;;;;;;;5093272;28;20827;-72
2022/03/17 11:40:14;;;;;;;88.63;23.83;;;;;;;;;;5093663;28;20555;-68
2022/03/17 11:42:47;;;;;;;89.97;24.03;;;;;;;;;;5093810;28;20860;-68
2022/03/17 11:45:40;;;;;;;90.20;22.40;;;;;;;;;;5093814;28;20456;-70
2022/03/17 11:48:14;;;;;;;90.03;23.17;;;;;;;;;;5092919;28;20539;-68
2022/03/17 11:50:51;;;;;;;91.30;25.90;;;;;;;;;;5093732;28;20839;-68
2022/03/17 11:53:24;;;;;;;87.13;24.27;;;;;;;;;;5093647;28;20450;-68
2022/03/17 11:55:54;;;;;;;89.47;24.43;;;;;;;;;;5093455;28;20467;-68
2022/03/17 11:58:28;;;;;;;88.57;23.33;;;;;;;;;;5092578;28;20442;-68
2022/03/17 12:01:02;;;;;;;99.17;24.47;;;;;;;;;;5093348;28;20539;-68
2022/03/17 12:03:30;;;;;;;92.93;25.80;;;;;;;;;;5093459;28;20485;-68
2022/03/17 12:06:05;;;;;;;85.77;23.83;;;;;;;;;;5093253;28;21001;-68
2022/03/17 12:08:35;;;;;;;89.20;22.77;;;;;;;;;;5092510;28;20564;-68
2022/03/17 12:11:06;;;;;;;90.03;24.20;;;;;;;;;;5093187;28;20836;-69
2022/03/17 12:13:36;;;;;;;90.33;23.73;;;;;;;;;;5092758;28;20533;-69
2022/03/17 12:16:04;;;;;;;89.97;24.77;;;;;;;;;;5110546;28;20498;-73
2022/03/17 12:18:31;;;;;;;90.60;23.37;;;;;;;;;;5112190;28;20438;-69
2022/03/17 12:20:58;;;;;;;87.93;23.43;;;;;;;;;;5112955;28;20472;-69
2022/03/17 12:23:43;;;;;;;87.67;23.90;;;;;;;;;;5113161;28;20473;-69
2022/03/17 12:26:10;;;;;;;90.30;23.70;;;;;;;;;;5112758;27;20553;-66
2022/03/17 12:28:45;;;;;;;89.23;24.20;;;;;;;;;;5111779;28;20527;-68
2022/03/17 12:31:12;;;;;;;97.47;25.53;;;;;;;;;;5112747;27;20455;-68
2022/03/17 12:33:39;;;;;;;90.20;25.80;;;;;;;;;;5112453;28;20531;-69
2022/03/17 12:36:07;;;;;;;90.50;24.83;;;;;;;;;;5112558;28;20564;-68
2022/03/17 12:38:35;;;;;;;94.10;24.40;;;;;;;;;;5111746;28;20450;-68
2022/03/17 12:41:02;;;;;;;86.47;23.83;;;;;;;;;;5112939;27;20437;-71
2022/03/17 12:43:34;;;;;;;93.30;25.90;;;;;;;;;;5112264;28;20481;-68
2022/03/17 12:46:04;;;;;;;104.00;25.27;;;;;;;;;;5112800;28;20583;-69
2022/03/17 12:48:32;;;;;;;89.33;24.50;;;;;;;;;;5111558;28;20490;-69
2022/03/17 12:51:04;;;;;;;94.27;25.17;;;;;;;;;;5098809;28;20553;-69
2022/03/17 12:53:32;;;;;;;92.43;25.00;;;;;;;;;;5092422;28;20452;-69
2022/03/17 12:55:59;;;;;;;89.67;25.37;;;;;;;;;;5092610;28;20470;-69
2022/03/17 12:58:26;;;;;;;90.23;24.10;;;;;;;;;;5092052;28;20577;-69
2022/03/17 13:00:53;;;;;;;92.73;25.07;;;;;;;;;;5092375;28;20450;-69
2022/03/17 13:03:25;;;;;;;95.03;27.00;;;;;;;;;;5091791;28;20442;-72
2022/03/17 13:08:38;;;;;;;94.13;27.17;;;;;;;;;;5091784;28;20489;-69
2022/03/17 13:16:41;;;;;;;91.97;25.53;;;;;;;;;;5091996;28;20442;-69
2022/03/17 13:19:10;;;;;;;90.40;25.90;;;;;;;;;;5091527;28;20450;-68
2022/03/17 13:21:38;;;;;;;92.30;25.10;;;;;;;;;;5091086;28;20450;-69
2022/03/17 13:24:15;;;;;;;89.90;26.17;;;;;;;;;;5105399;28;20506;-73
2022/03/17 13:26:42;;;;;;;92.53;25.67;;;;;;;;;;5112133;28;20500;-68
2022/03/17 13:29:09;;;;;;;101.50;26.80;;;;;;;;;;5111554;28;20564;-71
2022/03/17 13:31:37;;;;;;;90.90;24.77;;;;;;;;;;5112191;28;20441;-69
2022/03/17 13:34:04;;;;;;;90.43;25.27;;;;;;;;;;5112420;28;20548;-69
2022/03/17 13:36:50;;;;;;;94.67;25.90;;;;;;;;;;5112027;28;20520;-71
2022/03/17 13:39:18;;;;;;;90.80;25.70;;;;;;;;;;5111538;28;20865;-68
2022/03/17 13:41:57;;;;;;;92.60;26.10;;;;;;;;;;5111918;28;20445;-72
2022/03/17 13:44:24;;;;;;;96.60;25.77;;;;;;;;;;5111580;28;20517;-69
2022/03/17 13:46:51;;;;;;;90.57;23.93;;;;;;;;;;5111329;28;20461;-72
2022/03/17 13:49:26;;;;;;;90.77;25.00;;;;;;;;;;5111069;28;20499;-69
2022/03/17 13:51:53;;;;;;;94.57;25.77;;;;;;;;;;5112290;28;20452;-68
2022/03/17 13:54:22;;;;;;;90.00;25.17;;;;;;;;;;5108412;28;20445;-68
2022/03/17 13:56:49;;;;;;;88.20;24.20;;;;;;;;;;5111631;28;21060;-69
2022/03/17 13:59:16;;;;;;;95.07;28.67;;;;;;;;;;5113886;28;20469;-69
2022/03/17 14:01:43;;;;;;;93.30;25.83;;;;;;;;;;5115785;28;21017;-70
2022/03/17 14:04:11;;;;;;;88.57;24.50;;;;;;;;;;5115995;28;20455;-68
2022/03/17 14:06:39;;;;;;;90.47;23.70;;;;;;;;;;5115347;28;21007;-69
2022/03/17 14:09:06;;;;;;;99.00;26.57;;;;;;;;;;5114806;28;20491;-68
2022/03/17 14:11:37;;;;;;;99.40;25.10;;;;;;;;;;5116042;28;20875;-69
2022/03/17 14:14:05;;;;;;;91.03;26.60;;;;;;;;;;5115765;28;20537;-72
2022/03/17 14:16:33;;;;;;;88.53;23.97;;;;;;;;;;5115604;28;20511;-69
2022/03/17 14:19:01;;;;;;;88.07;23.83;;;;;;;;;;5114991;28;20941;-69
2022/03/17 14:21:29;;;;;;;94.70;25.43;;;;;;;;;;5115791;28;20441;-69
2022/03/17 14:24:11;;;;;;;89.00;25.63;;;;;;;;;;5115443;28;20513;-69
2022/03/17 14:26:41;;;;;;;95.43;25.87;;;;;;;;;;5105769;28;20966;-69
2022/03/17 14:29:08;;;;;;;89.20;25.60;;;;;;;;;;5094120;28;20490;-69
2022/03/17 14:31:36;;;;;;;93.23;25.30;;;;;;;;;;5095451;28;20815;-68
2022/03/17 14:34:04;;;;;;;97.03;28.37;;;;;;;;;;5095214;28;20534;-69
2022/03/17 14:36:32;;;;;;;97.20;27.23;;;;;;;;;;5095157;28;20548;-69
2022/03/17 14:39:00;;;;;;;93.30;27.33;;;;;;;;;;5093971;28;20448;-69
2022/03/17 14:41:27;;;;;;;98.43;27.97;;;;;;;;;;5094780;28;20828;-70
2022/03/17 14:43:57;;;;;;;97.60;26.93;;;;;;;;;;5095036;28;20868;-67
2022/03/17 14:46:24;;;;;;;97.43;26.83;;;;;;;;;;5094549;28;20458;-67